createdAt,value
2022-07-29T03:16:32.277Z,16.03
2022-07-29T03:19:51.440Z,15.96
2022-07-29T03:23:04.035Z,15.97
2022-07-29T03:26:13.958Z,15.96
2022-07-29T03:29:34.093Z,15.92
2022-07-29T03:32:52.246Z,15.83
2022-07-29T03:36:08.933Z,15.73
2022-07-29T03:39:26.521Z,15.68
2022-07-29T03:42:39.733Z,15.74
2022-07-29T03:45:54.571Z,15.74
2022-07-29T03:49:08.942Z,15.68
2022-07-29T03:52:23.207Z,15.57
2022-07-29T03:55:39.261Z,15.46
2022-07-29T03:58:54.310Z,15.37
2022-07-29T04:02:10.384Z,15.29
2022-07-29T04:05:20.510Z,15.22
2022-07-29T04:08:31.339Z,15.12
2022-07-29T04:12:02.123Z,15.09
2022-07-29T04:15:13.015Z,15.13
2022-07-29T04:18:22.709Z,15.17
2022-07-29T04:21:32.223Z,15.18
2022-07-29T04:24:44.602Z,15.14
2022-07-29T04:28:03.599Z,15.09
2022-07-29T04:31:14.151Z,15.14
2022-07-29T04:34:23.688Z,15.13
2022-07-29T04:37:37.826Z,15.12
2022-07-29T04:40:49.818Z,15.08
2022-07-29T04:44:01.584Z,15.09
2022-07-29T04:47:11.229Z,15.13
2022-07-29T04:50:23.238Z,15.13
2022-07-29T04:53:32.901Z,15.17
2022-07-29T04:56:47.277Z,15.20
2022-07-29T05:14:07.883Z,15.65
2022-07-29T05:17:19.921Z,15.70
2022-07-29T05:20:32.561Z,15.70
2022-07-29T05:23:44.411Z,15.69
2022-07-29T05:26:53.904Z,15.67
2022-07-29T05:30:05.150Z,15.62
2022-07-29T05:33:35.700Z,15.63
2022-07-29T05:36:46.690Z,15.66
2022-07-29T05:39:59.075Z,15.74
2022-07-29T05:43:08.697Z,15.86
2022-07-29T05:46:20.539Z,15.99
2022-07-29T05:49:30.189Z,16.13
2022-07-29T05:52:40.066Z,16.26
2022-07-29T05:55:49.818Z,16.36
2022-07-29T05:58:59.539Z,16.49
2022-07-29T06:02:13.442Z,16.63
2022-07-29T06:05:25.277Z,16.81
2022-07-29T06:08:35.532Z,16.96
2022-07-29T06:46:37.477Z,18.35
2022-07-29T06:49:47.172Z,18.49
2022-07-29T06:53:00.912Z,18.62
2022-07-29T06:56:10.600Z,18.66
2022-07-29T06:59:26.226Z,18.66
2022-07-29T07:02:41.643Z,18.66
2022-07-29T07:05:51.202Z,18.75
2022-07-29T07:09:01.354Z,18.82
2022-07-29T07:12:11.081Z,18.96
2022-07-29T07:15:38.847Z,19.05
2022-07-29T07:18:50.831Z,19.20
2022-07-29T07:22:00.353Z,19.33
2022-07-29T07:25:11.532Z,19.46
2022-07-29T07:28:24.508Z,19.42
2022-07-29T07:31:34.716Z,19.42
2022-07-29T07:34:45.560Z,19.34
2022-07-29T07:37:55.121Z,19.40
2022-07-29T07:41:04.823Z,19.47
2022-07-29T07:44:16.241Z,19.62
2022-07-29T07:47:28.045Z,19.74
2022-07-29T07:50:39.506Z,19.92
2022-07-29T07:53:52.445Z,20.16
2022-07-29T07:57:05.877Z,20.47
2022-07-29T08:00:17.267Z,20.61
2022-07-29T08:03:29.039Z,20.50
2022-07-29T08:06:39.901Z,20.52
2022-07-29T08:09:49.397Z,20.53
2022-07-29T08:13:01.051Z,20.69
2022-07-29T08:16:15.790Z,20.82
2022-07-29T08:19:25.427Z,21.01
2022-07-29T08:22:36.193Z,21.14
2022-07-29T08:25:45.673Z,21.38
2022-07-29T08:29:02.440Z,21.53
2022-07-29T08:32:11.975Z,21.86
2022-07-29T08:35:22.354Z,22.22
2022-07-29T08:38:33.270Z,22.58
2022-07-29T08:41:56.752Z,22.91
2022-07-29T08:45:08.056Z,23.41
2022-07-29T08:48:20.901Z,23.80
2022-07-29T08:51:32.277Z,24.15
2022-07-29T08:54:45.532Z,24.38
2022-07-29T08:57:57.326Z,24.63
2022-07-29T09:01:17.030Z,24.96
2022-07-29T09:04:34.868Z,25.19
2022-07-29T09:07:45.478Z,25.58
2022-07-29T09:10:59.247Z,25.86
2022-07-29T09:14:12.550Z,26.16
2022-07-29T09:17:41.463Z,26.45
2022-07-29T09:21:05.164Z,26.66
2022-07-29T09:24:18.722Z,26.99
2022-07-29T09:27:29.881Z,27.24
2022-07-29T09:30:52.070Z,27.61
2022-07-29T09:34:02.134Z,27.58
2022-07-29T09:37:30.977Z,27.56
2022-07-29T09:40:43.319Z,27.52
2022-07-29T09:43:58.317Z,27.65
2022-07-29T09:47:07.968Z,27.45
2022-07-29T09:50:27.055Z,27.13
2022-07-29T09:53:40.723Z,26.91
2022-07-29T09:56:54.765Z,27.13
2022-07-29T10:00:10.668Z,27.48
2022-07-29T10:03:23.912Z,27.96
2022-07-29T10:06:33.515Z,28.40
2022-07-29T10:09:56.445Z,28.49
2022-07-29T10:13:12.087Z,29.15
2022-07-29T10:16:33.432Z,29.90
2022-07-29T10:19:50.596Z,30.32
2022-07-29T10:23:00.133Z,30.44
2022-07-29T10:26:13.378Z,30.54
2022-07-29T10:29:23.148Z,30.64
2022-07-29T10:32:49.213Z,30.38
2022-07-29T10:36:20.416Z,30.21
2022-07-29T10:39:49.680Z,30.50
2022-07-29T10:43:10.998Z,31.01
2022-07-29T10:46:26.560Z,30.76
2022-07-29T10:49:37.721Z,30.29
2022-07-29T10:52:57.219Z,29.98
2022-07-29T10:56:27.687Z,30.46
2022-07-29T10:59:37.205Z,30.81
2022-07-29T11:02:52.104Z,30.31
2022-07-29T11:06:08.927Z,30.08
2022-07-29T11:09:34.827Z,30.31
2022-07-29T11:12:48.831Z,30.53
2022-07-29T11:16:00.480Z,30.54
2022-07-29T11:19:29.853Z,30.14
2022-07-29T11:22:47.242Z,29.71
2022-07-29T11:26:18.754Z,29.20
2022-07-29T11:29:37.439Z,29.01
2022-07-29T11:32:51.977Z,29.18
2022-07-29T11:36:11.247Z,29.32
2022-07-29T11:39:36.643Z,29.31
2022-07-29T11:42:55.012Z,29.74
2022-07-29T11:46:04.757Z,29.79
2022-07-29T11:49:32.340Z,30.24
2022-07-29T11:52:57.288Z,30.40
2022-07-29T11:56:11.135Z,30.69
2022-07-29T11:59:32.986Z,31.32
2022-07-29T12:02:45.317Z,31.63
2022-07-29T12:05:58.564Z,31.31
2022-07-29T12:09:11.313Z,30.52
2022-07-29T12:12:26.309Z,30.17
2022-07-29T12:15:46.986Z,29.69
2022-07-29T12:18:58.199Z,29.42
2022-07-29T12:22:10.555Z,29.42
2022-07-29T12:25:32.957Z,29.78
2022-07-29T12:28:47.106Z,30.25
2022-07-29T12:32:00.268Z,30.22
2022-07-29T12:35:14.114Z,30.73
2022-07-29T12:38:26.289Z,30.83
2022-07-29T12:41:36.484Z,31.17
2022-07-29T12:44:48.925Z,31.80
2022-07-29T12:47:59.290Z,31.65
2022-07-29T12:51:10.857Z,31.27
2022-07-29T12:54:23.228Z,30.85
2022-07-29T12:57:47.947Z,31.01
2022-07-29T13:01:04.924Z,31.37
2022-07-29T13:04:28.423Z,31.16
2022-07-29T13:07:54.559Z,30.96
2022-07-29T13:11:07.756Z,30.73
2022-07-29T13:14:33.978Z,30.30
2022-07-29T13:17:45.147Z,29.99
2022-07-29T13:20:58.261Z,29.77
2022-07-29T13:24:09.244Z,29.72
2022-07-29T13:27:19.571Z,29.72
2022-07-29T13:30:29.908Z,29.71
2022-07-29T13:33:40.792Z,29.70
2022-07-29T13:36:52.399Z,29.64
2022-07-29T13:40:05.625Z,29.52
2022-07-29T13:43:15.324Z,29.45
2022-07-29T13:46:24.885Z,29.41
2022-07-29T13:49:36.056Z,29.30
2022-07-29T13:52:45.610Z,29.32
2022-07-29T13:55:55.671Z,29.28
2022-07-29T13:59:05.211Z,29.34
2022-07-29T14:02:15.608Z,29.30
2022-07-29T14:05:26.688Z,29.28
2022-07-29T14:08:39.163Z,29.31
2022-07-29T14:11:52.160Z,29.31
2022-07-29T14:15:01.686Z,29.31
2022-07-29T14:18:11.223Z,29.32
2022-07-29T14:21:22.159Z,29.26
2022-07-29T14:24:32.034Z,29.31
2022-07-29T14:27:41.818Z,29.32
2022-07-29T14:30:51.476Z,29.40
2022-07-29T14:34:03.738Z,29.45
2022-07-29T14:37:16.969Z,29.42
2022-07-29T14:40:26.912Z,29.62
2022-07-29T14:43:36.617Z,29.91
2022-07-29T14:46:49.459Z,30.40
2022-07-29T14:49:59.032Z,31.44
2022-07-29T14:53:09.838Z,32.11
2022-07-29T14:56:36.610Z,32.21
2022-07-29T14:59:46.764Z,31.75
2022-07-29T15:03:03.523Z,31.19
2022-07-29T15:06:13.324Z,31.01
2022-07-29T15:09:26.741Z,30.82
2022-07-29T15:12:36.466Z,30.66
2022-07-29T15:15:46.335Z,30.54
2022-07-29T15:18:57.516Z,30.42
2022-07-29T15:22:13.552Z,30.50
2022-07-29T15:25:24.770Z,30.97
2022-07-29T15:28:34.947Z,30.99
2022-07-29T15:31:44.629Z,30.92
2022-07-29T15:34:54.231Z,30.95
2022-07-29T15:38:12.704Z,31.28
2022-07-29T15:41:23.731Z,32.29
2022-07-29T15:44:33.667Z,33.22
2022-07-29T15:47:43.251Z,33.91
2022-07-29T15:50:52.761Z,33.82
2022-07-29T15:54:05.459Z,33.85
2022-07-29T15:57:16.345Z,33.61
2022-07-29T16:00:25.918Z,33.37
2022-07-29T16:03:35.746Z,33.09
2022-07-29T16:06:47.372Z,32.41
2022-07-29T16:10:00.149Z,32.32
2022-07-29T16:13:27.202Z,32.77
2022-07-29T16:16:39.831Z,33.22
2022-07-29T16:19:51.973Z,33.27
2022-07-29T16:23:01.605Z,32.88
2022-07-29T16:26:11.504Z,32.29
2022-07-29T16:29:25.212Z,31.65
2022-07-29T16:32:34.881Z,31.52
2022-07-29T16:35:44.510Z,31.82
2022-07-29T16:38:54.154Z,31.75
2022-07-29T16:42:05.504Z,31.45
2022-07-29T16:45:17.484Z,31.10
2022-07-29T16:48:27.682Z,30.75
2022-07-29T16:51:37.546Z,30.16
2022-07-29T16:54:49.281Z,29.60
2022-07-29T16:57:58.878Z,28.86
2022-07-29T17:01:09.843Z,28.37
2022-07-29T17:04:25.463Z,28.17
2022-07-29T17:07:39.798Z,27.85
2022-07-29T17:10:52.496Z,27.64
2022-07-29T17:14:02.103Z,27.57
2022-07-29T17:17:15.670Z,27.56
2022-07-29T17:20:27.202Z,27.72
2022-07-29T17:23:38.985Z,27.46
2022-07-29T17:26:48.532Z,27.31
2022-07-29T17:29:58.319Z,27.05
2022-07-29T17:33:09.307Z,26.92
2022-07-29T17:36:25.065Z,26.74
2022-07-29T17:39:36.004Z,26.66
2022-07-29T17:42:47.705Z,26.58
2022-07-29T17:45:59.533Z,26.47
2022-07-29T17:49:10.741Z,26.34
2022-07-29T17:52:20.392Z,26.18
2022-07-29T17:55:29.901Z,26.13
2022-07-29T17:58:39.737Z,26.06
2022-07-29T18:01:49.298Z,25.90
2022-07-29T18:05:02.758Z,25.71
2022-07-29T18:08:12.332Z,25.56
2022-07-29T18:11:22.029Z,25.47
2022-07-29T18:14:31.521Z,25.31
2022-07-29T18:17:56.483Z,25.11
2022-07-29T18:21:15.902Z,24.94
2022-07-29T18:24:28.993Z,24.83
2022-07-29T18:27:41.163Z,24.64
2022-07-29T18:30:51.056Z,24.59
2022-07-29T18:34:02.763Z,24.45
2022-07-29T18:37:13.650Z,24.40
2022-07-29T18:40:25.530Z,24.40
2022-07-29T18:43:37.557Z,24.32
2022-07-29T18:46:55.432Z,24.33
2022-07-29T18:50:05.868Z,24.27
2022-07-29T18:53:17.140Z,24.26
2022-07-29T18:56:26.682Z,24.13
2022-07-29T18:59:36.319Z,23.79
2022-07-29T19:02:46.122Z,23.30
2022-07-29T19:05:56.119Z,22.89
2022-07-29T19:09:08.406Z,22.68
2022-07-29T19:12:17.970Z,22.48
2022-07-29T19:15:27.697Z,22.35
2022-07-29T19:18:37.190Z,22.21
2022-07-29T19:21:49.358Z,21.94
2022-07-29T19:25:02.561Z,21.70
2022-07-29T19:28:12.092Z,21.46
2022-07-29T19:31:21.711Z,21.30
2022-07-29T19:34:31.448Z,21.23
2022-07-29T19:37:41.034Z,21.04
2022-07-29T19:40:54.516Z,20.93
2022-07-29T19:44:06.487Z,20.91
2022-07-29T19:47:17.240Z,20.89
2022-07-29T19:50:27.191Z,20.83
2022-07-29T19:53:36.753Z,20.74
2022-07-29T19:56:47.574Z,20.66
2022-07-29T19:59:57.453Z,20.52
2022-07-29T20:03:07.051Z,20.45
2022-07-29T20:06:19.319Z,20.35
2022-07-29T20:09:28.796Z,20.35
2022-07-29T20:12:44.590Z,20.36
2022-07-29T20:15:58.504Z,20.28
2022-07-29T20:19:08.035Z,20.21
2022-07-29T20:22:21.101Z,20.15
2022-07-29T20:25:33.431Z,20.14
2022-07-29T20:28:48.903Z,20.05
2022-07-29T20:31:59.153Z,19.98
2022-07-29T20:35:09.830Z,19.90
2022-07-29T20:38:19.358Z,19.88
2022-07-29T20:41:29.426Z,19.86
2022-07-29T20:44:40.234Z,19.78
2022-07-29T20:47:50.556Z,19.66
2022-07-29T20:51:00.068Z,19.57
2022-07-29T20:54:09.766Z,19.48
2022-07-29T20:57:19.246Z,19.42
2022-07-29T21:00:54.834Z,19.39
2022-07-29T21:04:06.852Z,19.43
2022-07-29T21:07:16.661Z,19.45
2022-07-29T21:10:31.804Z,19.38
2022-07-29T21:13:41.565Z,19.29
2022-07-29T21:17:00.268Z,19.22
2022-07-29T21:20:10.685Z,19.12
2022-07-29T21:23:28.968Z,19.12
2022-07-29T21:26:54.469Z,19.16
2022-07-29T21:30:14.532Z,19.11
2022-07-29T21:33:26.255Z,19.01
2022-07-29T21:36:48.191Z,18.99
2022-07-29T21:39:58.375Z,18.92
2022-07-29T21:43:07.871Z,18.87
2022-07-29T21:46:20.546Z,18.79
2022-07-29T21:49:37.696Z,18.74
2022-07-29T21:52:47.206Z,18.75
2022-07-29T21:56:00.030Z,18.76
2022-07-29T21:59:12.849Z,18.72
2022-07-29T22:02:25.540Z,18.62
2022-07-29T22:05:38.717Z,18.52
2022-07-29T22:08:48.195Z,18.50
2022-07-29T22:12:02.267Z,18.56
2022-07-29T22:15:19.702Z,18.50
2022-07-29T22:18:29.187Z,18.51
2022-07-29T22:21:40.403Z,18.50
2022-07-29T22:24:49.928Z,18.50
2022-07-29T22:28:01.624Z,18.46
2022-07-29T22:31:11.184Z,18.42
2022-07-29T22:34:20.736Z,18.40
2022-07-29T22:37:34.594Z,18.33
2022-07-29T22:40:44.110Z,18.16
2022-07-29T22:43:53.593Z,18.06
2022-07-29T22:47:04.869Z,17.98
2022-07-29T22:50:14.358Z,17.91
2022-07-29T22:53:27.513Z,17.87
2022-07-29T22:56:37.313Z,17.95
2022-07-29T22:59:46.915Z,17.97
